Time;durP1;ratioP1;P1;durP2;ratioP2;P2;SDS_P1;SDS_P2;PMS_P1;PMS_P2;Temp;Humidity;BMP_temperature;BMP_pressure;BME280_temperature;BME280_humidity;BME280_pressure;Samples;Min_cycle;Max_cycle;Signal;HPM_P1;HPM_P2
2022/02/22 00:01:10;;;;;;;3.30;0.22;;;;;;;;;;5070963;28;20116;-40
2022/02/22 00:03:36;;;;;;;0.82;0.10;;;;;;;;;;5053978;28;20561;-39
2022/02/22 00:06:02;;;;;;;1.42;0.22;;;;;;;;;;5046953;28;20039;-43
2022/02/22 00:08:27;;;;;;;0.98;0.10;;;;;;;;;;5065695;28;20024;-39
2022/02/22 00:10:52;;;;;;;0.90;0.15;;;;;;;;;;5061505;28;20029;-41
2022/02/22 00:13:17;;;;;;;0.40;0.10;;;;;;;;;;5066541;28;20385;-42
2022/02/22 00:15:42;;;;;;;1.25;0.10;;;;;;;;;;5031056;28;20497;-41
2022/02/22 00:18:08;;;;;;;0.93;0.10;;;;;;;;;;5053378;28;20025;-41
2022/02/22 00:20:33;;;;;;;1.52;0.10;;;;;;;;;;5050572;28;20298;-39
2022/02/22 00:22:58;;;;;;;0.80;0.55;;;;;;;;;;5045990;28;20025;-41
2022/02/22 00:25:23;;;;;;;0.47;0.10;;;;;;;;;;5041956;28;20037;-42
2022/02/22 00:27:48;;;;;;;0.63;0.10;;;;;;;;;;5049644;28;20273;-40
2022/02/22 00:30:15;;;;;;;0.68;0.10;;;;;;;;;;5050791;28;20040;-40
2022/02/22 00:32:40;;;;;;;1.05;0.10;;;;;;;;;;5051593;28;20028;-39
2022/02/22 00:35:10;;;;;;;0.57;0.08;;;;;;;;;;5034232;28;20021;-42
2022/02/22 00:37:35;;;;;;;0.43;0.08;;;;;;;;;;5046151;28;20039;-40
2022/02/22 00:40:00;;;;;;;1.00;0.10;;;;;;;;;;5050144;28;20473;-41
2022/02/22 00:42:26;;;;;;;0.65;0.10;;;;;;;;;;5033565;28;20032;-39
2022/02/22 00:44:52;;;;;;;0.80;0.10;;;;;;;;;;5051776;28;20033;-40
2022/02/22 00:47:17;;;;;;;1.05;0.28;;;;;;;;;;5057619;28;20024;-38
2022/02/22 00:49:42;;;;;;;0.88;0.10;;;;;;;;;;5050987;28;20056;-40
2022/02/22 00:52:07;;;;;;;0.70;0.10;;;;;;;;;;5045082;28;20282;-38
2022/02/22 00:54:32;;;;;;;1.15;0.10;;;;;;;;;;5051582;28;20390;-40
2022/02/22 00:56:57;;;;;;;0.75;0.10;;;;;;;;;;5055913;28;20031;-42
2022/02/22 00:59:23;;;;;;;1.15;0.10;;;;;;;;;;5071890;28;20078;-42
2022/02/22 01:01:48;;;;;;;0.73;0.10;;;;;;;;;;5046504;28;20052;-42
2022/02/22 01:04:13;;;;;;;0.93;0.10;;;;;;;;;;5049964;28;20033;-41
2022/02/22 01:06:38;;;;;;;0.38;0.10;;;;;;;;;;5051867;28;20021;-40
2022/02/22 01:09:06;;;;;;;1.05;0.20;;;;;;;;;;5055570;28;20102;-42
2022/02/22 01:11:31;;;;;;;0.25;0.10;;;;;;;;;;5059253;28;20025;-38
2022/02/22 01:13:56;;;;;;;0.70;0.20;;;;;;;;;;5034884;28;20275;-40
2022/02/22 01:16:21;;;;;;;0.68;0.10;;;;;;;;;;5051720;28;20025;-42
2022/02/22 01:18:46;;;;;;;0.50;0.13;;;;;;;;;;5051633;28;20033;-38
2022/02/22 01:21:12;;;;;;;0.50;0.05;;;;;;;;;;5069297;28;20023;-44
2022/02/22 01:23:37;;;;;;;0.80;0.15;;;;;;;;;;5044211;28;20503;-39
2022/02/22 01:26:02;;;;;;;0.32;0.10;;;;;;;;;;5061066;28;20021;-40
2022/02/22 01:28:27;;;;;;;1.27;0.10;;;;;;;;;;5038436;28;20088;-42
2022/02/22 01:30:53;;;;;;;0.80;0.10;;;;;;;;;;5037299;28;20121;-38
2022/02/22 01:33:18;;;;;;;0.80;0.10;;;;;;;;;;5055178;28;20028;-41
2022/02/22 01:35:43;;;;;;;0.43;0.00;;;;;;;;;;5055142;28;20028;-41
2022/02/22 01:38:08;;;;;;;0.52;0.10;;;;;;;;;;5054839;28;20032;-42
2022/02/22 01:40:34;;;;;;;0.70;0.10;;;;;;;;;;5048068;28;20028;-40
2022/02/22 01:42:59;;;;;;;0.10;0.00;;;;;;;;;;5056554;28;20627;-40
2022/02/22 01:45:25;;;;;;;0.50;0.17;;;;;;;;;;5069486;28;20025;-40
2022/02/22 01:47:51;;;;;;;0.10;0.00;;;;;;;;;;5055686;28;20103;-41
2022/02/22 01:50:16;;;;;;;0.25;0.03;;;;;;;;;;5045424;28;20384;-38
2022/02/22 01:52:41;;;;;;;0.35;0.10;;;;;;;;;;5046917;28;20033;-41
2022/02/22 01:55:07;;;;;;;0.85;0.20;;;;;;;;;;5056631;28;20124;-42
2022/02/22 01:57:33;;;;;;;0.30;0.08;;;;;;;;;;5045765;28;20382;-39
2022/02/22 01:59:59;;;;;;;1.33;0.10;;;;;;;;;;5054715;28;20020;-38
2022/02/22 02:02:24;;;;;;;0.10;0.00;;;;;;;;;;5049347;28;20505;-41
2022/02/22 02:04:51;;;;;;;0.75;0.17;;;;;;;;;;5060183;28;20148;-38
2022/02/22 02:07:16;;;;;;;0.40;0.10;;;;;;;;;;5065963;28;20099;-40
2022/02/22 02:09:41;;;;;;;2.05;0.20;;;;;;;;;;5053406;28;20636;-43
2022/02/22 02:12:06;;;;;;;0.57;0.05;;;;;;;;;;5054259;28;20417;-39
2022/02/22 02:14:31;;;;;;;0.20;0.00;;;;;;;;;;5036246;28;20032;-42
2022/02/22 02:16:57;;;;;;;1.37;0.17;;;;;;;;;;5063643;28;20029;-39
2022/02/22 02:19:23;;;;;;;1.45;0.10;;;;;;;;;;5054383;28;20281;-43
2022/02/22 02:21:48;;;;;;;0.35;0.00;;;;;;;;;;5063680;28;20025;-39
2022/02/22 02:24:21;;;;;;;0.50;0.20;;;;;;;;;;5061182;28;20107;-43
2022/02/22 02:26:46;;;;;;;0.90;0.30;;;;;;;;;;5035094;28;20028;-43
2022/02/22 02:29:13;;;;;;;0.47;0.10;;;;;;;;;;5055638;28;20036;-43
2022/02/22 02:31:39;;;;;;;0.70;0.00;;;;;;;;;;5053918;28;20051;-39
2022/02/22 02:34:05;;;;;;;0.70;0.03;;;;;;;;;;5056048;28;20441;-40
2022/02/22 02:36:32;;;;;;;0.20;0.05;;;;;;;;;;5068408;28;20497;-38
2022/02/22 02:38:57;;;;;;;0.50;0.05;;;;;;;;;;5037451;28;20025;-38
2022/02/22 02:41:22;;;;;;;0.40;0.10;;;;;;;;;;5051592;28;20049;-43
2022/02/22 02:43:47;;;;;;;1.83;0.00;;;;;;;;;;5056134;28;20036;-40
2022/02/22 02:46:12;;;;;;;0.75;0.00;;;;;;;;;;5073586;28;20078;-42
2022/02/22 02:48:38;;;;;;;0.35;0.10;;;;;;;;;;5063410;28;20369;-39
2022/02/22 02:51:03;;;;;;;0.85;0.10;;;;;;;;;;5060574;28;20472;-39
2022/02/22 02:53:28;;;;;;;0.77;0.10;;;;;;;;;;5052240;28;20032;-40
2022/02/22 02:55:53;;;;;;;0.28;0.08;;;;;;;;;;5057527;28;20027;-40
2022/02/22 02:58:18;;;;;;;0.03;0.00;;;;;;;;;;5055763;28;20008;-41
2022/02/22 03:00:44;;;;;;;0.67;0.10;;;;;;;;;;5052977;28;20260;-42
2022/02/22 03:03:09;;;;;;;1.00;0.00;;;;;;;;;;5050249;28;20734;-40
2022/02/22 03:05:34;;;;;;;0.75;0.05;;;;;;;;;;5055752;28;20503;-41
2022/02/22 03:07:59;;;;;;;1.27;0.05;;;;;;;;;;5059364;28;20045;-39
2022/02/22 03:10:25;;;;;;;0.10;0.00;;;;;;;;;;5052775;28;20021;-40
2022/02/22 03:12:50;;;;;;;0.35;0.05;;;;;;;;;;5057457;28;20024;-41
2022/02/22 03:15:16;;;;;;;0.20;0.00;;;;;;;;;;5056009;28;20124;-42
2022/02/22 03:17:41;;;;;;;0.63;0.10;;;;;;;;;;5068120;28;20036;-40
2022/02/22 03:20:07;;;;;;;0.45;0.10;;;;;;;;;;5041235;28;20036;-41
2022/02/22 03:22:32;;;;;;;1.13;0.20;;;;;;;;;;5050055;28;20032;-42
2022/02/22 03:24:57;;;;;;;0.53;0.10;;;;;;;;;;5048841;28;20489;-40
2022/02/22 03:27:22;;;;;;;0.82;0.10;;;;;;;;;;5056838;28;20278;-43
2022/02/22 03:29:47;;;;;;;1.65;0.13;;;;;;;;;;5065693;28;20025;-39
2022/02/22 03:32:13;;;;;;;0.90;0.10;;;;;;;;;;5056140;28;20032;-40
2022/02/22 03:34:38;;;;;;;0.50;0.10;;;;;;;;;;5065605;28;20044;-39
2022/02/22 03:37:03;;;;;;;0.68;0.10;;;;;;;;;;5053738;28;20441;-40
2022/02/22 03:39:28;;;;;;;0.40;0.00;;;;;;;;;;5035832;28;20529;-42
2022/02/22 03:41:53;;;;;;;0.45;0.10;;;;;;;;;;5065144;28;20059;-40
2022/02/22 03:44:19;;;;;;;0.50;0.10;;;;;;;;;;5065057;28;20029;-44
2022/02/22 03:46:44;;;;;;;0.70;0.15;;;;;;;;;;5059870;28;20025;-41
2022/02/22 03:49:09;;;;;;;0.80;0.10;;;;;;;;;;5044095;28;20057;-41
2022/02/22 03:51:34;;;;;;;1.83;0.20;;;;;;;;;;5053823;28;20361;-42
2022/02/22 03:54:00;;;;;;;1.83;0.10;;;;;;;;;;5038749;28;20144;-40
2022/02/22 03:56:25;;;;;;;0.95;0.10;;;;;;;;;;5062282;28;20392;-41
2022/02/22 03:58:50;;;;;;;3.10;0.57;;;;;;;;;;5055862;28;20468;-40
2022/02/22 04:01:16;;;;;;;0.60;0.10;;;;;;;;;;5052188;28;20401;-40
2022/02/22 04:03:41;;;;;;;0.70;0.20;;;;;;;;;;5052489;28;20417;-39
2022/02/22 04:06:06;;;;;;;1.33;0.20;;;;;;;;;;5062947;28;20496;-39
2022/02/22 04:08:32;;;;;;;0.98;0.10;;;;;;;;;;5052066;28;20029;-41
2022/02/22 04:10:57;;;;;;;1.95;0.17;;;;;;;;;;5051697;28;20025;-40
2022/02/22 04:13:22;;;;;;;1.10;0.10;;;;;;;;;;5057296;28;20013;-40
2022/02/22 04:15:47;;;;;;;2.50;0.25;;;;;;;;;;5064920;28;20498;-41
2022/02/22 04:18:13;;;;;;;1.95;0.30;;;;;;;;;;5055640;28;20174;-43
2022/02/22 04:20:38;;;;;;;2.40;0.22;;;;;;;;;;5051657;28;20033;-38
2022/02/22 04:23:03;;;;;;;1.40;0.20;;;;;;;;;;5056096;28;20524;-43
2022/02/22 04:25:29;;;;;;;2.00;0.20;;;;;;;;;;5053783;28;20031;-41
2022/02/22 04:27:54;;;;;;;1.75;0.20;;;;;;;;;;5043455;28;20029;-39
2022/02/22 04:30:19;;;;;;;3.38;0.47;;;;;;;;;;5066858;28;20060;-40
2022/02/22 04:32:46;;;;;;;1.55;0.40;;;;;;;;;;5057919;28;20377;-44
2022/02/22 04:35:11;;;;;;;1.73;0.40;;;;;;;;;;5046512;28;20056;-38
2022/02/22 04:37:36;;;;;;;1.70;0.45;;;;;;;;;;5059416;28;20059;-41
2022/02/22 04:40:02;;;;;;;0.63;0.05;;;;;;;;;;5050007;28;20408;-44
2022/02/22 04:42:27;;;;;;;2.08;0.22;;;;;;;;;;5056369;28;20021;-42
2022/02/22 04:44:52;;;;;;;1.38;0.20;;;;;;;;;;5041117;28;20025;-39
2022/02/22 04:47:18;;;;;;;1.77;0.20;;;;;;;;;;5064425;28;20105;-41
2022/02/22 04:49:43;;;;;;;1.20;0.20;;;;;;;;;;5061570;28;20284;-40
2022/02/22 04:52:09;;;;;;;3.22;0.30;;;;;;;;;;5048493;28;20555;-39
2022/02/22 04:54:35;;;;;;;0.90;0.20;;;;;;;;;;5050687;28;20021;-40
2022/02/22 04:57:00;;;;;;;3.88;0.38;;;;;;;;;;5051302;28;20021;-43
2022/02/22 04:59:25;;;;;;;1.42;0.30;;;;;;;;;;5051948;28;20135;-40
2022/02/22 05:01:51;;;;;;;1.92;0.15;;;;;;;;;;5051327;28;20032;-39
2022/02/22 05:04:16;;;;;;;1.48;0.38;;;;;;;;;;5060163;28;20380;-44
2022/02/22 05:06:41;;;;;;;1.20;0.20;;;;;;;;;;5069093;28;20383;-39
2022/02/22 05:09:07;;;;;;;1.45;0.25;;;;;;;;;;5051816;28;20115;-42
2022/02/22 05:11:32;;;;;;;1.23;0.22;;;;;;;;;;5064328;28;20029;-40
2022/02/22 05:13:58;;;;;;;2.10;0.20;;;;;;;;;;5072015;28;20039;-44
2022/02/22 05:16:23;;;;;;;0.98;0.20;;;;;;;;;;5041888;28;20030;-40
2022/02/22 05:18:48;;;;;;;1.95;0.13;;;;;;;;;;5046764;28;20264;-39
2022/02/22 05:21:13;;;;;;;2.20;0.20;;;;;;;;;;5039285;28;20119;-43
2022/02/22 05:23:38;;;;;;;2.17;0.27;;;;;;;;;;5056031;28;20287;-42
2022/02/22 05:26:04;;;;;;;1.65;0.22;;;;;;;;;;5043275;28;20640;-43
2022/02/22 05:28:30;;;;;;;1.75;0.22;;;;;;;;;;5051176;28;20074;-40
2022/02/22 05:30:55;;;;;;;2.03;0.30;;;;;;;;;;5049626;28;20030;-41
2022/02/22 05:33:21;;;;;;;1.67;0.22;;;;;;;;;;5048113;28;20087;-42
2022/02/22 05:35:47;;;;;;;2.50;0.20;;;;;;;;;;5053092;28;20033;-41
2022/02/22 05:38:12;;;;;;;2.72;0.30;;;;;;;;;;5060376;28;20020;-40
2022/02/22 05:40:38;;;;;;;2.88;0.32;;;;;;;;;;5058503;28;20408;-40
2022/02/22 05:43:03;;;;;;;1.67;0.38;;;;;;;;;;5057896;28;20047;-41
2022/02/22 05:45:29;;;;;;;2.28;0.30;;;;;;;;;;5056424;28;20020;-43
2022/02/22 05:47:54;;;;;;;2.80;0.20;;;;;;;;;;5058524;28;20029;-40
2022/02/22 05:50:19;;;;;;;1.75;0.30;;;;;;;;;;5061981;28;20029;-39
2022/02/22 05:52:44;;;;;;;2.88;0.20;;;;;;;;;;5057200;28;20063;-43
2022/02/22 05:55:09;;;;;;;3.08;0.30;;;;;;;;;;5055835;28;20086;-39
2022/02/22 05:57:35;;;;;;;2.80;0.30;;;;;;;;;;5056325;28;20119;-40
2022/02/22 06:00:00;;;;;;;2.40;0.43;;;;;;;;;;5058114;28;20035;-40
2022/02/22 06:02:26;;;;;;;2.38;0.20;;;;;;;;;;5041463;28;20418;-39
2022/02/22 06:04:52;;;;;;;2.33;0.22;;;;;;;;;;5066227;28;20082;-41
2022/02/22 06:07:20;;;;;;;3.17;0.52;;;;;;;;;;5070884;28;20025;-38
2022/02/22 06:09:45;;;;;;;2.85;0.60;;;;;;;;;;5037797;28;20445;-45
2022/02/22 06:12:11;;;;;;;2.70;0.45;;;;;;;;;;5031737;28;20033;-41
2022/02/22 06:14:36;;;;;;;3.70;0.40;;;;;;;;;;5065432;28;20538;-41
2022/02/22 06:17:01;;;;;;;2.03;0.27;;;;;;;;;;5065754;28;20028;-40
2022/02/22 06:19:26;;;;;;;2.33;0.28;;;;;;;;;;5052869;28;20272;-39
2022/02/22 06:21:52;;;;;;;3.95;0.63;;;;;;;;;;5052797;28;20544;-40
2022/02/22 06:24:17;;;;;;;5.97;0.63;;;;;;;;;;5047153;28;20052;-41
2022/02/22 06:26:42;;;;;;;3.15;0.43;;;;;;;;;;5047278;28;20541;-45
2022/02/22 06:29:08;;;;;;;5.15;0.50;;;;;;;;;;5063890;28;20512;-40
2022/02/22 06:31:33;;;;;;;3.78;0.40;;;;;;;;;;5062210;28;20037;-42
2022/02/22 06:33:58;;;;;;;5.53;0.57;;;;;;;;;;5044993;28;20684;-42
2022/02/22 06:36:23;;;;;;;3.55;0.57;;;;;;;;;;5063515;28;20477;-40
2022/02/22 06:38:50;;;;;;;4.85;0.65;;;;;;;;;;5047251;28;20028;-42
2022/02/22 06:41:15;;;;;;;3.78;0.80;;;;;;;;;;5056335;28;20074;-39
2022/02/22 06:43:40;;;;;;;4.38;0.50;;;;;;;;;;5066820;28;20021;-40
2022/02/22 06:46:05;;;;;;;3.55;0.47;;;;;;;;;;5053731;28;20033;-41
2022/02/22 06:48:30;;;;;;;2.47;0.55;;;;;;;;;;5054822;28;20028;-44
2022/02/22 06:50:56;;;;;;;3.70;0.52;;;;;;;;;;5051026;28;20031;-39
2022/02/22 06:53:21;;;;;;;3.28;0.32;;;;;;;;;;5057599;28;20023;-44
2022/02/22 06:55:46;;;;;;;4.80;0.83;;;;;;;;;;5033337;28;20032;-39
2022/02/22 06:58:11;;;;;;;5.65;1.00;;;;;;;;;;5049972;28;20638;-39
2022/02/22 07:00:40;;;;;;;4.72;0.77;;;;;;;;;;5034909;28;20014;-42
2022/02/22 07:03:05;;;;;;;3.33;0.60;;;;;;;;;;5073317;28;20097;-43
2022/02/22 07:05:31;;;;;;;5.65;0.50;;;;;;;;;;5053473;28;20028;-41
2022/02/22 07:07:57;;;;;;;3.17;0.75;;;;;;;;;;5054031;28;20473;-39
2022/02/22 07:10:22;;;;;;;3.03;0.63;;;;;;;;;;5062172;28;20025;-41
2022/02/22 07:12:48;;;;;;;5.22;0.68;;;;;;;;;;5056306;28;20489;-43
2022/02/22 07:15:13;;;;;;;3.08;0.63;;;;;;;;;;5059284;28;20017;-41
2022/02/22 07:17:48;;;;;;;3.92;0.70;;;;;;;;;;5036205;28;20107;-40
2022/02/22 07:20:14;;;;;;;5.43;0.65;;;;;;;;;;5062596;28;20111;-42
2022/02/22 07:22:39;;;;;;;5.03;0.98;;;;;;;;;;5052581;28;20112;-41
2022/02/22 07:25:08;;;;;;;3.85;0.30;;;;;;;;;;5015337;28;20072;-40
2022/02/22 07:27:34;;;;;;;4.90;0.60;;;;;;;;;;5045405;28;20137;-43
2022/02/22 07:29:59;;;;;;;3.05;0.40;;;;;;;;;;5062555;28;20575;-43
2022/02/22 07:32:24;;;;;;;3.38;0.40;;;;;;;;;;5065707;28;20025;-39
2022/02/22 07:34:49;;;;;;;3.53;0.40;;;;;;;;;;5073415;28;20029;-39
2022/02/22 07:37:14;;;;;;;4.32;1.25;;;;;;;;;;5073848;28;20028;-41
2022/02/22 07:39:40;;;;;;;3.45;0.50;;;;;;;;;;5069597;28;20115;-39
2022/02/22 07:42:05;;;;;;;4.78;0.80;;;;;;;;;;5072866;28;20104;-41
2022/02/22 07:44:30;;;;;;;3.95;0.43;;;;;;;;;;5062932;28;20037;-41
2022/02/22 07:46:55;;;;;;;3.95;0.60;;;;;;;;;;5053132;28;20021;-41
2022/02/22 07:49:20;;;;;;;5.15;0.82;;;;;;;;;;5052708;28;20489;-41
2022/02/22 07:51:46;;;;;;;2.53;0.40;;;;;;;;;;5063333;28;20389;-41
2022/02/22 07:54:11;;;;;;;6.90;1.00;;;;;;;;;;5043332;28;20385;-42
2022/02/22 07:56:36;;;;;;;3.35;0.50;;;;;;;;;;5045563;28;20275;-46
2022/02/22 07:59:01;;;;;;;2.78;0.82;;;;;;;;;;5033319;28;20021;-41
2022/02/22 08:01:27;;;;;;;3.47;0.70;;;;;;;;;;5057725;28;20021;-42
2022/02/22 08:03:52;;;;;;;5.53;0.70;;;;;;;;;;5072269;28;20041;-40
2022/02/22 08:06:17;;;;;;;5.50;0.60;;;;;;;;;;5059612;28;20032;-44
2022/02/22 08:08:42;;;;;;;3.70;0.30;;;;;;;;;;5052733;28;20032;-39
2022/02/22 08:11:08;;;;;;;4.28;0.40;;;;;;;;;;5038991;28;20400;-39
2022/02/22 08:13:33;;;;;;;2.10;0.40;;;;;;;;;;5062423;28;20500;-42
2022/02/22 08:15:58;;;;;;;3.38;0.63;;;;;;;;;;5053026;28;20178;-42
2022/02/22 08:18:23;;;;;;;4.13;0.50;;;;;;;;;;5050872;28;20052;-41
2022/02/22 08:20:48;;;;;;;3.83;0.43;;;;;;;;;;5052517;28;20310;-40
2022/02/22 08:23:14;;;;;;;3.65;0.60;;;;;;;;;;5050962;28;20028;-40
2022/02/22 08:25:39;;;;;;;8.07;0.90;;;;;;;;;;5066710;28;20540;-47
2022/02/22 08:28:11;;;;;;;5.43;0.80;;;;;;;;;;5070414;28;20338;-41
2022/02/22 08:30:38;;;;;;;4.05;0.95;;;;;;;;;;5064424;28;20470;-41
2022/02/22 08:33:03;;;;;;;5.50;0.95;;;;;;;;;;5065186;28;20028;-44
2022/02/22 08:35:28;;;;;;;4.80;0.45;;;;;;;;;;5072134;28;20029;-46
2022/02/22 08:37:54;;;;;;;5.20;1.15;;;;;;;;;;5036142;28;20029;-43
2022/02/22 08:40:19;;;;;;;4.85;0.80;;;;;;;;;;5048860;28;20078;-41
2022/02/22 08:42:45;;;;;;;2.33;0.60;;;;;;;;;;5055491;28;20113;-45
2022/02/22 08:45:10;;;;;;;6.00;0.80;;;;;;;;;;5060031;28;20429;-45
2022/02/22 08:47:35;;;;;;;4.85;1.02;;;;;;;;;;5071885;28;20481;-47
2022/02/22 08:50:00;;;;;;;3.93;0.80;;;;;;;;;;5061914;28;20093;-47
2022/02/22 08:52:29;;;;;;;4.43;0.70;;;;;;;;;;5051601;28;20295;-44
2022/02/22 08:54:55;;;;;;;5.68;0.63;;;;;;;;;;5052602;28;20021;-44
2022/02/22 08:57:20;;;;;;;4.13;0.50;;;;;;;;;;5047832;28;20036;-40
2022/02/22 08:59:45;;;;;;;3.92;0.70;;;;;;;;;;5034338;28;20470;-41
2022/02/22 09:02:10;;;;;;;4.57;0.97;;;;;;;;;;5054343;28;20517;-46
2022/02/22 09:04:36;;;;;;;3.38;0.40;;;;;;;;;;5052128;28;20270;-46
2022/02/22 09:07:01;;;;;;;4.50;0.60;;;;;;;;;;5071920;28;20032;-46
2022/02/22 09:09:26;;;;;;;7.25;0.90;;;;;;;;;;5069636;28;20630;-43
2022/02/22 09:11:51;;;;;;;6.97;0.97;;;;;;;;;;5052739;28;20021;-44
2022/02/22 09:14:17;;;;;;;5.32;1.17;;;;;;;;;;5053472;28;20275;-41
2022/02/22 09:16:42;;;;;;;3.58;0.82;;;;;;;;;;5026622;28;20033;-45
2022/02/22 09:19:07;;;;;;;4.72;0.68;;;;;;;;;;5035007;28;20021;-44
2022/02/22 09:21:32;;;;;;;4.32;0.70;;;;;;;;;;5055713;28;20032;-46
2022/02/22 09:23:57;;;;;;;6.18;1.05;;;;;;;;;;5041662;28;20036;-45
2022/02/22 09:26:23;;;;;;;8.47;1.40;;;;;;;;;;5042381;28;20028;-45
2022/02/22 09:28:48;;;;;;;3.45;0.60;;;;;;;;;;5056221;28;20627;-41
2022/02/22 09:31:13;;;;;;;5.30;0.57;;;;;;;;;;5062351;28;20029;-44
2022/02/22 09:33:39;;;;;;;3.55;0.50;;;;;;;;;;5062730;28;20029;-43
2022/02/22 09:36:04;;;;;;;4.55;0.70;;;;;;;;;;5059331;28;20025;-43
2022/02/22 09:38:29;;;;;;;5.72;0.70;;;;;;;;;;5051376;28;20037;-41
2022/02/22 09:40:57;;;;;;;2.65;0.30;;;;;;;;;;5041673;28;20036;-44
2022/02/22 09:43:22;;;;;;;6.25;1.58;;;;;;;;;;5052388;28;20033;-47
2022/02/22 09:45:48;;;;;;;7.03;0.80;;;;;;;;;;5051697;28;20499;-41
2022/02/22 09:48:14;;;;;;;5.72;0.73;;;;;;;;;;5053444;28;20048;-42
2022/02/22 09:50:39;;;;;;;5.20;1.45;;;;;;;;;;5057654;28;20033;-43
2022/02/22 09:53:04;;;;;;;4.28;0.65;;;;;;;;;;5041223;28;20025;-49
2022/02/22 09:55:30;;;;;;;5.70;0.98;;;;;;;;;;5059944;28;20020;-46
2022/02/22 09:57:55;;;;;;;4.82;1.15;;;;;;;;;;5059781;28;20078;-45
2022/02/22 10:00:22;;;;;;;4.20;0.70;;;;;;;;;;5066469;28;20291;-44
2022/02/22 10:02:48;;;;;;;4.53;0.75;;;;;;;;;;5064367;28;20044;-43
2022/02/22 10:05:17;;;;;;;5.93;0.70;;;;;;;;;;5064347;28;20025;-44
2022/02/22 10:07:44;;;;;;;5.30;0.47;;;;;;;;;;5037396;28;20024;-40
2022/02/22 10:10:10;;;;;;;6.03;0.88;;;;;;;;;;5056226;28;20029;-44
2022/02/22 10:12:35;;;;;;;4.80;0.85;;;;;;;;;;5040105;28;20039;-43
2022/02/22 10:15:00;;;;;;;3.00;0.57;;;;;;;;;;5074499;28;20033;-40
2022/02/22 10:17:26;;;;;;;4.50;0.80;;;;;;;;;;5070633;28;20025;-47
2022/02/22 10:19:58;;;;;;;4.57;0.70;;;;;;;;;;5046030;28;20029;-41
2022/02/22 10:22:25;;;;;;;8.82;1.15;;;;;;;;;;5048429;28;20045;-42
2022/02/22 10:25:01;;;;;;;7.13;0.85;;;;;;;;;;5037712;28;20029;-42
2022/02/22 10:27:26;;;;;;;8.18;0.63;;;;;;;;;;5029238;28;20026;-46
2022/02/22 10:29:51;;;;;;;5.38;0.60;;;;;;;;;;5045432;28;20034;-44
2022/02/22 10:32:16;;;;;;;5.05;1.15;;;;;;;;;;5038390;28;20029;-45
2022/02/22 10:34:42;;;;;;;5.47;0.70;;;;;;;;;;5064755;28;20359;-42
2022/02/22 10:37:07;;;;;;;4.95;0.98;;;;;;;;;;5068947;28;20163;-41
2022/02/22 10:39:32;;;;;;;5.30;0.70;;;;;;;;;;5057452;28;20501;-48
2022/02/22 10:41:58;;;;;;;3.72;0.70;;;;;;;;;;5042741;28;20055;-43
2022/02/22 10:44:34;;;;;;;11.57;2.55;;;;;;;;;;5053881;28;20035;-45
2022/02/22 10:47:00;;;;;;;7.88;1.20;;;;;;;;;;5048797;28;20033;-44
2022/02/22 10:49:29;;;;;;;5.50;0.63;;;;;;;;;;5051961;28;20027;-48
2022/02/22 10:51:56;;;;;;;7.40;0.85;;;;;;;;;;5034004;28;20116;-44
2022/02/22 10:54:22;;;;;;;7.20;0.93;;;;;;;;;;5049327;28;20589;-48
2022/02/22 10:56:48;;;;;;;6.43;0.88;;;;;;;;;;5050345;28;20025;-44
2022/02/22 10:59:13;;;;;;;7.43;1.10;;;;;;;;;;5033973;28;20032;-48
2022/02/22 11:01:38;;;;;;;6.38;0.40;;;;;;;;;;5053134;28;20044;-44
2022/02/22 11:04:04;;;;;;;4.55;0.73;;;;;;;;;;5049945;28;20067;-47
2022/02/22 11:06:29;;;;;;;4.55;0.80;;;;;;;;;;5059504;28;20032;-44
2022/02/22 11:08:55;;;;;;;6.53;1.38;;;;;;;;;;5053037;28;20510;-43
2022/02/22 11:11:27;;;;;;;3.95;0.50;;;;;;;;;;5044012;28;20057;-45
2022/02/22 11:13:59;;;;;;;3.53;0.60;;;;;;;;;;5039922;28;20078;-43
2022/02/22 11:16:25;;;;;;;4.07;1.23;;;;;;;;;;5046823;28;20028;-45
2022/02/22 11:18:51;;;;;;;7.50;1.92;;;;;;;;;;5053437;28;20025;-48
2022/02/22 11:21:17;;;;;;;7.22;2.50;;;;;;;;;;5036549;28;20466;-43
2022/02/22 11:23:43;;;;;;;6.65;1.60;;;;;;;;;;5036742;28;20031;-45
2022/02/22 11:26:09;;;;;;;2.88;0.30;;;;;;;;;;5037346;28;20426;-47
2022/02/22 11:28:36;;;;;;;5.78;0.98;;;;;;;;;;5042175;28;20025;-43
2022/02/22 11:31:02;;;;;;;3.40;0.40;;;;;;;;;;5033699;28;20071;-45
2022/02/22 11:33:36;;;;;;;2.88;0.55;;;;;;;;;;5045741;28;20029;-46
2022/02/22 11:36:05;;;;;;;3.60;0.65;;;;;;;;;;5045685;28;20021;-42
2022/02/22 11:38:38;;;;;;;4.68;0.90;;;;;;;;;;5056474;28;20491;-41
2022/02/22 11:41:11;;;;;;;3.80;0.57;;;;;;;;;;5049731;28;20029;-44
2022/02/22 11:43:38;;;;;;;2.65;0.60;;;;;;;;;;5034839;28;20017;-46
2022/02/22 11:46:08;;;;;;;5.45;0.68;;;;;;;;;;5033106;28;20084;-46
2022/02/22 11:48:34;;;;;;;3.75;0.95;;;;;;;;;;5042843;28;20021;-44
2022/02/22 11:51:09;;;;;;;4.10;0.65;;;;;;;;;;5042682;28;20025;-45
2022/02/22 11:53:36;;;;;;;3.53;0.75;;;;;;;;;;5046121;28;20494;-47
2022/02/22 11:56:01;;;;;;;5.72;0.68;;;;;;;;;;5048292;28;20055;-44
2022/02/22 11:58:27;;;;;;;3.97;0.60;;;;;;;;;;5039803;28;20525;-46
2022/02/22 12:01:04;;;;;;;3.63;0.57;;;;;;;;;;5041436;28;20017;-46
2022/02/22 12:03:40;;;;;;;4.15;0.75;;;;;;;;;;5038686;28;20037;-44
2022/02/22 12:06:05;;;;;;;1.77;0.47;;;;;;;;;;5033003;28;20457;-44
2022/02/22 12:08:38;;;;;;;4.47;0.40;;;;;;;;;;5032720;28;20049;-44
2022/02/22 12:11:06;;;;;;;2.47;0.35;;;;;;;;;;5037022;28;20035;-43
2022/02/22 12:13:41;;;;;;;3.53;0.40;;;;;;;;;;5042254;28;20020;-41
2022/02/22 12:16:20;;;;;;;5.80;0.90;;;;;;;;;;5048457;28;20062;-45
2022/02/22 12:18:49;;;;;;;4.43;0.63;;;;;;;;;;5051703;28;20021;-45
2022/02/22 12:21:17;;;;;;;3.28;0.70;;;;;;;;;;5049230;28;20481;-45
2022/02/22 12:23:43;;;;;;;3.60;0.32;;;;;;;;;;5036716;28;20017;-45
2022/02/22 12:26:10;;;;;;;2.50;0.45;;;;;;;;;;5027628;28;20040;-44
2022/02/22 12:29:03;;;;;;;3.03;0.45;;;;;;;;;;5033854;28;20021;-44
2022/02/22 12:31:31;;;;;;;5.68;0.50;;;;;;;;;;5033313;28;20501;-42
2022/02/22 12:34:03;;;;;;;1.98;0.30;;;;;;;;;;5033213;28;20029;-46
2022/02/22 12:36:29;;;;;;;3.58;0.40;;;;;;;;;;5038746;28;20025;-44
2022/02/22 12:38:55;;;;;;;3.20;0.40;;;;;;;;;;5051143;28;20066;-44
2022/02/22 12:41:21;;;;;;;1.45;0.45;;;;;;;;;;5034636;28;20030;-48
2022/02/22 12:43:48;;;;;;;2.90;0.30;;;;;;;;;;5032172;28;20026;-47
2022/02/22 12:46:13;;;;;;;4.68;0.40;;;;;;;;;;5037427;28;20020;-44
2022/02/22 12:48:40;;;;;;;2.58;0.38;;;;;;;;;;5049932;28;20025;-45
2022/02/22 12:51:06;;;;;;;3.17;0.43;;;;;;;;;;5056635;28;20033;-46
2022/02/22 12:53:31;;;;;;;2.88;0.28;;;;;;;;;;5037400;28;20082;-47
2022/02/22 12:55:56;;;;;;;4.80;0.77;;;;;;;;;;5048289;28;20029;-46
2022/02/22 12:58:36;;;;;;;2.35;0.45;;;;;;;;;;5031657;28;20021;-47
2022/02/22 13:01:11;;;;;;;4.97;0.80;;;;;;;;;;5046609;28;20304;-45
2022/02/22 13:03:36;;;;;;;1.48;0.30;;;;;;;;;;5044999;28;20049;-46
2022/02/22 13:06:01;;;;;;;2.10;0.43;;;;;;;;;;5050545;28;20470;-47
2022/02/22 13:08:27;;;;;;;2.55;0.50;;;;;;;;;;5038979;28;20021;-43
2022/02/22 13:10:52;;;;;;;1.88;0.20;;;;;;;;;;5038434;28;20029;-44
2022/02/22 13:13:24;;;;;;;2.97;0.63;;;;;;;;;;5029660;28;20026;-46
2022/02/22 13:15:50;;;;;;;2.10;0.20;;;;;;;;;;5031711;28;20256;-46
2022/02/22 13:18:18;;;;;;;2.95;0.47;;;;;;;;;;5039845;28;20021;-42
2022/02/22 13:20:43;;;;;;;2.03;0.50;;;;;;;;;;5042272;28;20026;-43
2022/02/22 13:23:11;;;;;;;1.23;0.20;;;;;;;;;;5038168;28;20021;-45
2022/02/22 13:25:37;;;;;;;2.10;0.43;;;;;;;;;;5048947;28;20385;-46
2022/02/22 13:28:02;;;;;;;1.40;0.38;;;;;;;;;;5039289;28;20017;-46
2022/02/22 13:30:28;;;;;;;2.72;0.65;;;;;;;;;;5030601;28;20021;-41
2022/02/22 13:33:01;;;;;;;3.28;0.40;;;;;;;;;;5041565;28;20025;-43
2022/02/22 13:35:26;;;;;;;2.53;0.40;;;;;;;;;;5047663;28;20029;-47
2022/02/22 13:37:51;;;;;;;3.03;0.50;;;;;;;;;;5071043;28;20111;-44
2022/02/22 13:40:19;;;;;;;4.32;0.40;;;;;;;;;;5050691;28;20343;-47
2022/02/22 13:42:45;;;;;;;4.22;0.55;;;;;;;;;;5051773;28;20029;-48
2022/02/22 13:45:13;;;;;;;3.08;0.50;;;;;;;;;;5049490;28;20059;-48
2022/02/22 13:47:39;;;;;;;3.08;0.50;;;;;;;;;;5053840;28;20021;-46
2022/02/22 13:50:15;;;;;;;3.72;0.60;;;;;;;;;;5044134;28;20051;-46
2022/02/22 13:52:41;;;;;;;4.07;0.60;;;;;;;;;;5046957;28;20071;-47
2022/02/22 13:55:07;;;;;;;1.98;0.30;;;;;;;;;;5043571;28;20030;-46
2022/02/22 13:57:38;;;;;;;2.15;0.30;;;;;;;;;;5049581;28;20056;-44
2022/02/22 14:00:05;;;;;;;2.63;0.50;;;;;;;;;;5042607;28;20094;-44
2022/02/22 14:02:33;;;;;;;3.97;0.60;;;;;;;;;;5052046;28;20056;-46
2022/02/22 14:04:58;;;;;;;3.33;0.40;;;;;;;;;;5048919;28;20044;-47
2022/02/22 14:07:23;;;;;;;2.13;0.52;;;;;;;;;;5055247;28;20104;-46
2022/02/22 14:09:49;;;;;;;4.75;0.77;;;;;;;;;;5049604;28;20030;-47
2022/02/22 14:12:14;;;;;;;2.42;0.40;;;;;;;;;;5034308;28;20532;-46
2022/02/22 14:14:40;;;;;;;2.28;0.30;;;;;;;;;;5046440;28;20025;-46
2022/02/22 14:17:05;;;;;;;1.48;0.32;;;;;;;;;;5049765;28;20053;-41
2022/02/22 14:19:30;;;;;;;1.80;0.30;;;;;;;;;;5034626;28;20108;-48
2022/02/22 14:21:56;;;;;;;1.53;0.30;;;;;;;;;;5039586;28;20040;-43
2022/02/22 14:24:21;;;;;;;1.48;0.30;;;;;;;;;;5033550;28;20329;-47
2022/02/22 14:26:46;;;;;;;2.15;0.40;;;;;;;;;;5032540;28;20113;-47
2022/02/22 14:29:11;;;;;;;2.88;0.47;;;;;;;;;;5053614;28;20056;-44
2022/02/22 14:31:37;;;;;;;2.05;0.25;;;;;;;;;;5051414;28;20052;-45
2022/02/22 14:34:03;;;;;;;3.45;0.47;;;;;;;;;;5051609;28;20078;-44
2022/02/22 14:36:29;;;;;;;2.63;0.47;;;;;;;;;;5043835;28;20155;-46